Time;durP1;ratioP1;P1;durP2;ratioP2;P2;SDS_P1;SDS_P2;PMS_P1;PMS_P2;Temp;Humidity;BMP_temperature;BMP_pressure;BME280_temperature;BME280_humidity;BME280_pressure;Samples;Min_cycle;Max_cycle;Signal;HPM_P1;HPM_P2
2021/05/10 00:00:14;;;;;;;31.77;7.07;;;;;;;22.98;35.70;98636.50;5071868;28;20028;-73
2021/05/10 00:02:40;;;;;;;26.40;7.00;;;;;;;22.94;35.72;98626.69;5072138;28;20044;-74
2021/05/10 00:05:06;;;;;;;24.05;5.32;;;;;;;22.62;36.71;98624.91;5072005;28;20028;-75
2021/05/10 00:07:32;;;;;;;31.58;6.78;;;;;;;22.90;36.01;98624.03;5071765;28;20024;-88
2021/05/10 00:09:58;;;;;;;24.88;4.97;;;;;;;22.75;36.28;98630.47;5071954;28;20165;-84
2021/05/10 00:12:24;;;;;;;21.42;5.43;;;;;;;22.65;36.78;98624.00;5075966;28;20533;-74
2021/05/10 00:14:49;;;;;;;33.47;7.07;;;;;;;22.66;36.66;98612.44;5075240;28;20036;-73
2021/05/10 00:17:15;;;;;;;30.45;7.55;;;;;;;22.69;36.64;98610.78;5075037;28;20051;-73
2021/05/10 00:19:40;;;;;;;27.88;6.55;;;;;;;22.74;36.48;98606.63;5075498;28;20103;-73
2021/05/10 00:22:06;;;;;;;25.52;6.28;;;;;;;22.76;36.53;98613.34;5075277;28;20055;-74
2021/05/10 00:24:32;;;;;;;32.22;6.57;;;;;;;22.69;36.56;98608.75;5075274;28;20029;-74
2021/05/10 00:26:58;;;;;;;25.10;7.30;;;;;;;22.09;38.06;98616.97;5074140;28;20036;-73
2021/05/10 00:29:23;;;;;;;34.15;7.53;;;;;;;22.40;37.31;98614.44;5075227;28;20376;-73
2021/05/10 00:31:49;;;;;;;33.22;5.13;;;;;;;22.33;37.54;98619.44;5075228;28;20107;-73
2021/05/10 00:34:15;;;;;;;24.38;5.82;;;;;;;22.32;37.74;98623.44;5075405;28;20103;-89
2021/05/10 00:36:41;;;;;;;22.30;6.53;;;;;;;22.51;37.52;98628.00;5075784;28;20029;-74
2021/05/10 00:39:07;;;;;;;21.58;6.63;;;;;;;22.22;38.06;98622.56;5075547;28;20036;-77
2021/05/10 00:41:34;;;;;;;27.38;5.25;;;;;;;22.39;37.78;98624.00;5075194;28;20067;-83
2021/05/10 00:44:00;;;;;;;16.90;5.00;;;;;;;22.32;37.81;98620.66;5075098;28;20103;-72
2021/05/10 00:46:25;;;;;;;15.00;4.13;;;;;;;22.41;37.58;98620.78;5074990;28;20033;-73
2021/05/10 00:48:51;;;;;;;20.52;6.57;;;;;;;22.24;37.82;98622.09;5074885;28;20056;-87
2021/05/10 00:51:17;;;;;;;17.23;4.65;;;;;;;22.37;37.68;98614.56;5074890;28;20032;-73
2021/05/10 00:53:42;;;;;;;16.80;4.50;;;;;;;22.52;37.24;98614.88;5074537;28;20657;-76
2021/05/10 00:56:08;;;;;;;24.08;5.43;;;;;;;22.47;37.36;98627.34;5074644;28;20060;-78
2021/05/10 00:58:34;;;;;;;20.33;4.47;;;;;;;22.37;37.38;98620.91;5074709;28;20025;-74
2021/05/10 01:00:59;;;;;;;24.90;4.40;;;;;;;22.40;37.38;98613.66;5074547;28;20100;-73
2021/05/10 01:03:26;;;;;;;14.63;4.10;;;;;;;22.44;37.29;98619.88;5075039;28;20051;-79
2021/05/10 01:05:52;;;;;;;22.92;5.90;;;;;;;22.35;37.64;98623.31;5074967;28;20016;-74
2021/05/10 01:08:17;;;;;;;17.20;3.78;;;;;;;22.33;37.38;98625.78;5074943;28;20031;-73
2021/05/10 01:10:43;;;;;;;23.17;4.75;;;;;;;22.42;37.27;98622.34;5074991;28;20430;-73
2021/05/10 01:13:09;;;;;;;17.73;4.50;;;;;;;22.19;37.80;98622.66;5074649;28;20051;-73
2021/05/10 01:15:34;;;;;;;17.30;3.75;;;;;;;22.08;38.11;98628.53;5074172;28;20066;-74
2021/05/10 01:18:00;;;;;;;10.90;2.95;;;;;;;22.02;38.36;98621.91;5074098;28;20067;-73
2021/05/10 01:20:27;;;;;;;13.40;3.67;;;;;;;22.09;38.21;98628.09;5074269;28;20404;-73
2021/05/10 01:22:55;;;;;;;19.65;3.40;;;;;;;22.12;38.31;98626.41;5072912;28;20131;-73
2021/05/10 01:25:26;;;;;;;12.32;3.20;;;;;;;22.14;38.38;98627.53;5074146;28;20024;-73
2021/05/10 01:27:52;;;;;;;13.18;3.35;;;;;;;22.18;38.14;98621.88;5073883;28;20027;-83
2021/05/10 01:30:27;;;;;;;16.52;3.45;;;;;;;22.15;38.20;98617.97;5074049;28;20024;-73
2021/05/10 01:32:54;;;;;;;18.85;4.90;;;;;;;22.28;37.92;98622.75;5074139;28;20048;-73
2021/05/10 01:35:32;;;;;;;23.70;4.18;;;;;;;22.11;38.56;98614.50;5074256;28;20386;-81
2021/05/10 01:38:00;;;;;;;16.52;4.22;;;;;;;22.20;38.12;98619.41;5074111;28;20474;-73
2021/05/10 01:40:26;;;;;;;18.55;3.85;;;;;;;22.28;37.90;98617.19;5073640;28;20127;-74
2021/05/10 01:42:52;;;;;;;17.85;3.92;;;;;;;21.93;38.71;98622.56;5073569;28;20414;-86
2021/05/10 01:45:18;;;;;;;22.58;4.53;;;;;;;22.12;38.30;98610.50;5074176;28;20051;-74
2021/05/10 01:47:43;;;;;;;18.73;4.43;;;;;;;22.09;38.52;98603.06;5074317;28;20112;-73
2021/05/10 01:50:09;;;;;;;15.85;4.63;;;;;;;21.98;38.80;98612.88;5073951;28;20039;-74
2021/05/10 01:52:34;;;;;;;19.70;3.33;;;;;;;22.20;38.34;98610.28;5073660;28;20159;-73
2021/05/10 01:55:00;;;;;;;15.68;3.35;;;;;;;22.18;38.51;98612.75;5073772;28;20028;-73
2021/05/10 01:57:25;;;;;;;15.65;3.22;;;;;;;22.31;38.25;98610.75;5073596;28;20390;-73
2021/05/10 01:59:51;;;;;;;16.90;3.95;;;;;;;22.42;38.21;98617.53;5073601;28;20054;-73
2021/05/10 02:02:16;;;;;;;13.98;3.17;;;;;;;22.41;38.16;98609.66;5073255;28;20043;-78
2021/05/10 02:05:21;;;;;;;17.15;3.53;;;;;;;22.23;38.67;98604.63;5073865;28;20054;-84
2021/05/10 02:07:51;;;;;;;15.30;3.25;;;;;;;22.16;38.73;98604.84;5073261;28;20510;-72
2021/05/10 02:10:25;;;;;;;13.02;3.90;;;;;;;22.07;38.91;98605.47;5073026;28;20032;-74
2021/05/10 02:12:59;;;;;;;12.15;2.97;;;;;;;22.17;38.39;98602.84;5073865;28;20048;-91
2021/05/10 02:15:33;;;;;;;24.13;5.65;;;;;;;22.11;38.52;98602.59;5073532;28;20111;-90
2021/05/10 02:18:00;;;;;;;16.63;3.88;;;;;;;22.11;38.38;98605.38;5074566;28;20036;-89
2021/05/10 02:20:27;;;;;;;18.40;5.10;;;;;;;22.10;38.43;98610.16;5072938;28;20024;-75
2021/05/10 02:23:01;;;;;;;19.02;5.03;;;;;;;21.91;38.65;98610.31;5072254;28;20056;-87
2021/05/10 02:25:33;;;;;;;17.70;3.75;;;;;;;21.87;39.07;98602.84;5073646;28;20079;-83
2021/05/10 02:27:59;;;;;;;21.88;4.53;;;;;;;22.02;38.58;98617.13;5072549;28;20028;-82
2021/05/10 02:30:28;;;;;;;17.55;4.72;;;;;;;21.91;38.79;98611.09;5071444;28;20024;-75
2021/05/10 02:32:54;;;;;;;18.95;4.55;;;;;;;21.93;38.76;98614.22;5070161;28;20042;-77
2021/05/10 02:35:21;;;;;;;16.60;4.43;;;;;;;22.02;38.60;98611.56;5071394;28;20064;-82
2021/05/10 02:37:48;;;;;;;17.02;3.92;;;;;;;21.90;38.72;98615.09;5071778;28;20081;-77
2021/05/10 02:40:15;;;;;;;22.50;5.35;;;;;;;21.80;39.03;98616.97;5071635;28;20409;-75
2021/05/10 02:42:42;;;;;;;16.27;4.03;;;;;;;21.83;38.83;98615.28;5070044;28;20099;-76
2021/05/10 02:45:09;;;;;;;17.52;3.90;;;;;;;21.88;38.44;98614.75;5071393;28;20103;-78
2021/05/10 02:47:35;;;;;;;18.23;5.60;;;;;;;21.68;39.00;98605.78;5071500;28;20021;-83
2021/05/10 02:50:03;;;;;;;19.27;5.32;;;;;;;21.62;39.16;98600.00;5070948;28;20028;-79
2021/05/10 02:52:28;;;;;;;20.67;5.93;;;;;;;21.44;39.67;98603.25;5068554;28;20463;-75
2021/05/10 02:54:54;;;;;;;29.80;5.30;;;;;;;21.68;39.18;98597.44;5071414;28;20032;-75
2021/05/10 02:57:19;;;;;;;20.40;6.20;;;;;;;21.82;38.90;98599.84;5071758;28;20024;-75
2021/05/10 02:59:45;;;;;;;16.52;4.05;;;;;;;21.86;38.89;98603.31;5071512;28;20028;-86
2021/05/10 03:02:11;;;;;;;22.00;4.55;;;;;;;21.96;38.74;98596.66;5071666;28;20108;-84
2021/05/10 03:04:36;;;;;;;16.55;3.95;;;;;;;22.00;38.63;98591.78;5071024;28;20029;-76
2021/05/10 03:07:02;;;;;;;19.30;4.43;;;;;;;21.92;38.69;98589.66;5071411;28;20471;-75
2021/05/10 03:09:28;;;;;;;18.15;3.90;;;;;;;21.90;38.80;98592.84;5071189;28;20031;-76
2021/05/10 03:11:54;;;;;;;13.07;4.13;;;;;;;21.76;39.11;98587.69;5070624;28;20530;-75
2021/05/10 03:14:19;;;;;;;16.23;4.28;;;;;;;21.78;38.95;98586.06;5071049;28;20024;-75
2021/05/10 03:16:45;;;;;;;18.27;4.85;;;;;;;21.72;39.31;98592.59;5070926;28;20112;-76
2021/05/10 03:19:10;;;;;;;23.95;5.28;;;;;;;21.78;38.93;98588.84;5069702;28;20029;-76
2021/05/10 03:21:43;;;;;;;15.20;4.50;;;;;;;21.77;38.96;98586.50;5070682;28;20052;-75
2021/05/10 03:24:09;;;;;;;21.10;5.20;;;;;;;21.80;38.69;98583.59;5069644;28;20075;-76
2021/05/10 03:26:36;;;;;;;22.33;5.13;;;;;;;21.72;39.02;98581.47;5070927;28;20046;-80
2021/05/10 03:29:03;;;;;;;19.45;4.03;;;;;;;21.74;38.81;98593.69;5070015;28;20509;-76
2021/05/10 03:31:30;;;;;;;14.60;4.07;;;;;;;21.64;38.92;98586.44;5068726;28;20024;-75
2021/05/10 03:33:55;;;;;;;17.70;4.13;;;;;;;21.66;38.92;98583.22;5069565;28;20107;-75
2021/05/10 03:36:21;;;;;;;20.60;5.22;;;;;;;21.72;38.66;98587.81;5071009;28;20116;-75
2021/05/10 03:38:46;;;;;;;17.30;3.55;;;;;;;21.69;38.98;98585.91;5071167;28;20497;-75
2021/05/10 03:41:12;;;;;;;11.35;3.38;;;;;;;21.73;38.42;98572.69;5070856;28;20113;-76
2021/05/10 03:43:37;;;;;;;16.05;4.57;;;;;;;21.65;38.63;98576.13;5069413;28;20082;-75
2021/05/10 03:46:03;;;;;;;16.05;3.75;;;;;;;21.64;38.58;98571.78;5069119;28;20032;-85
2021/05/10 03:48:29;;;;;;;17.45;4.07;;;;;;;21.76;38.28;98576.56;5067044;28;20028;-80
2021/05/10 03:50:54;;;;;;;21.98;4.75;;;;;;;21.72;38.42;98571.13;5071228;28;20020;-88
2021/05/10 03:53:21;;;;;;;10.27;2.97;;;;;;;21.76;38.28;98577.34;5070833;28;20036;-74
2021/05/10 03:55:47;;;;;;;13.07;3.55;;;;;;;21.84;38.24;98575.97;5069667;28;20028;-74
2021/05/10 03:58:13;;;;;;;13.65;2.88;;;;;;;21.80;38.27;98583.59;5070294;28;20024;-74
2021/05/10 04:00:38;;;;;;;11.30;2.80;;;;;;;21.83;38.36;98581.94;5071147;28;20096;-74
2021/05/10 04:03:07;;;;;;;15.73;2.85;;;;;;;21.84;38.41;98589.06;5070576;28;20115;-85
2021/05/10 04:15:49;;;;;;;9.88;2.38;;;;;;;21.86;38.43;98595.75;5060420;28;20074;-75
2021/05/10 04:18:15;;;;;;;9.27;2.65;;;;;;;21.77;38.63;98590.06;5068419;28;20612;-75
2021/05/10 04:20:41;;;;;;;8.75;2.50;;;;;;;21.93;38.43;98596.78;5068950;28;20021;-76
2021/05/10 04:23:07;;;;;;;10.80;2.78;;;;;;;21.82;38.59;98603.41;5070079;28;20493;-75
2021/05/10 04:25:32;;;;;;;16.48;4.85;;;;;;;21.92;38.39;98604.34;5070347;28;20024;-82
2021/05/10 04:27:58;;;;;;;10.90;3.25;;;;;;;21.86;38.67;98597.75;5070492;28;20119;-85
2021/05/10 04:30:24;;;;;;;8.77;2.28;;;;;;;21.97;38.51;98597.44;5070045;28;20024;-90
2021/05/10 04:32:50;;;;;;;11.25;2.83;;;;;;;21.96;38.56;98593.88;5070498;28;20032;-74
2021/05/10 04:35:15;;;;;;;9.75;2.83;;;;;;;21.76;38.88;98594.03;5070461;28;20020;-75
2021/05/10 04:37:41;;;;;;;16.63;2.90;;;;;;;21.62;39.37;98600.00;5070173;28;20024;-80
2021/05/10 04:40:08;;;;;;;14.68;3.70;;;;;;;21.59;39.45;98593.31;5071714;28;20075;-83
2021/05/10 04:42:33;;;;;;;9.75;2.38;;;;;;;21.36;39.95;98601.88;5072659;28;20498;-86
2021/05/10 04:44:59;;;;;;;28.90;8.13;;;;;;;21.60;39.43;98600.44;5071381;28;20077;-86
2021/05/10 04:47:35;;;;;;;10.60;2.88;;;;;;;21.84;38.96;98605.75;5071289;28;20056;-74
2021/05/10 04:50:02;;;;;;;10.85;2.50;;;;;;;21.60;39.59;98608.75;5076806;28;20040;-87
2021/05/10 04:52:28;;;;;;;11.68;3.00;;;;;;;21.81;39.15;98612.19;5069933;28;20741;-86
2021/05/10 04:54:53;;;;;;;17.45;3.30;;;;;;;21.87;38.99;98616.75;5069732;28;20017;-78
2021/05/10 04:57:20;;;;;;;9.50;2.20;;;;;;;21.82;39.22;98614.50;5071429;28;20021;-73
2021/05/10 04:59:45;;;;;;;14.07;3.15;;;;;;;21.98;39.00;98616.44;5072829;28;20024;-75
2021/05/10 05:02:11;;;;;;;15.98;2.80;;;;;;;21.78;39.33;98615.84;5073523;28;20059;-80
2021/05/10 05:04:36;;;;;;;14.43;3.65;;;;;;;21.88;39.31;98611.97;5073739;28;20032;-85
2021/05/10 05:07:02;;;;;;;10.60;2.78;;;;;;;21.92;39.44;98614.66;5072088;28;20107;-82
2021/05/10 05:09:28;;;;;;;10.25;3.63;;;;;;;21.94;39.36;98618.56;5070668;28;20029;-86
2021/05/10 05:11:54;;;;;;;12.45;3.47;;;;;;;21.87;39.64;98618.75;5073693;28;20419;-85
2021/05/10 05:14:19;;;;;;;12.98;3.78;;;;;;;21.98;39.68;98618.44;5074150;28;20503;-86
2021/05/10 05:16:45;;;;;;;12.75;4.15;;;;;;;21.86;39.88;98614.44;5073789;28;20051;-76
2021/05/10 05:19:10;;;;;;;17.55;3.97;;;;;;;22.00;39.57;98625.16;5073911;28;20693;-86
2021/05/10 05:21:36;;;;;;;13.55;3.67;;;;;;;21.77;40.14;98622.63;5073795;28;20025;-78
2021/05/10 05:24:01;;;;;;;14.27;3.65;;;;;;;22.02;39.57;98617.13;5073325;28;20024;-82
2021/05/10 05:26:27;;;;;;;23.90;4.22;;;;;;;21.81;40.17;98614.97;5074196;28;20025;-82
2021/05/10 05:28:53;;;;;;;15.70;3.80;;;;;;;21.70;40.28;98620.81;5074036;28;20027;-83
2021/05/10 05:31:18;;;;;;;11.60;3.50;;;;;;;21.69;40.33;98621.25;5073625;28;20033;-76
2021/05/10 05:33:44;;;;;;;14.43;2.95;;;;;;;21.73;40.29;98619.16;5073391;28;20024;-79
2021/05/10 05:36:10;;;;;;;13.60;2.65;;;;;;;21.59;40.69;98620.31;5073156;28;20020;-74
2021/05/10 05:38:37;;;;;;;16.23;2.97;;;;;;;21.70;40.52;98625.59;5072767;28;20446;-86
2021/05/10 05:41:02;;;;;;;17.95;3.35;;;;;;;21.71;40.45;98624.38;5073777;28;20021;-79
2021/05/10 05:43:28;;;;;;;16.92;4.53;;;;;;;21.86;40.17;98622.78;5073766;28;20502;-85
2021/05/10 05:45:55;;;;;;;14.10;2.60;;;;;;;21.82;40.31;98625.63;5073813;28;20032;-82
2021/05/10 05:48:20;;;;;;;13.38;3.38;;;;;;;21.82;40.53;98635.97;5074050;28;20023;-84
2021/05/10 05:50:46;;;;;;;17.95;4.75;;;;;;;21.85;40.38;98637.88;5073753;28;20581;-76
2021/05/10 05:53:12;;;;;;;23.42;4.75;;;;;;;21.69;40.89;98626.81;5073287;28;20039;-75
2021/05/10 05:55:40;;;;;;;15.88;4.50;;;;;;;21.85;40.52;98637.88;5072835;28;20024;-84
2021/05/10 05:58:06;;;;;;;17.77;3.95;;;;;;;21.88;40.58;98637.78;5073339;28;20060;-78
2021/05/10 06:00:32;;;;;;;16.58;3.63;;;;;;;22.12;40.03;98638.31;5073498;28;20044;-75
2021/05/10 06:02:58;;;;;;;38.33;7.45;;;;;;;22.13;40.12;98636.31;5071992;28;20467;-85
2021/05/10 06:05:23;;;;;;;17.45;4.43;;;;;;;22.18;39.97;98635.78;5072089;28;20536;-74
2021/05/10 06:07:49;;;;;;;23.95;3.92;;;;;;;22.48;39.25;98642.03;5071682;28;20059;-75
2021/05/10 06:10:19;;;;;;;22.38;5.13;;;;;;;22.37;39.48;98650.72;5073006;28;20509;-82
2021/05/10 06:12:47;;;;;;;22.38;4.18;;;;;;;22.32;39.42;98645.69;5073144;28;20131;-83
2021/05/10 06:15:13;;;;;;;27.45;4.75;;;;;;;22.00;40.31;98641.06;5057889;28;20135;-74
2021/05/10 06:17:39;;;;;;;8.07;2.80;;;;;;;22.18;39.73;98646.13;5056089;28;20591;-74
2021/05/10 06:20:07;;;;;;;17.20;4.38;;;;;;;21.90;40.12;98645.66;5056640;28;20036;-82
2021/05/10 06:22:33;;;;;;;16.65;3.08;;;;;;;22.07;40.09;98649.97;5056741;28;20718;-76
2021/05/10 06:25:00;;;;;;;13.02;3.05;;;;;;;22.01;40.20;98648.94;5056875;28;20143;-78
2021/05/10 06:27:25;;;;;;;15.27;3.90;;;;;;;22.01;40.34;98643.38;5056154;28;20114;-74
2021/05/10 06:29:51;;;;;;;11.52;3.10;;;;;;;22.39;39.53;98628.81;5055556;28;20034;-74
2021/05/10 06:32:16;;;;;;;17.65;3.22;;;;;;;22.69;39.11;98631.03;5056012;28;20024;-75
2021/05/10 06:34:42;;;;;;;16.75;3.65;;;;;;;22.70;38.98;98629.81;5056087;28;20039;-73
2021/05/10 06:37:08;;;;;;;7.90;1.95;;;;;;;22.88;38.78;98642.41;5055444;28;20437;-78
2021/05/10 06:39:33;;;;;;;13.00;2.60;;;;;;;22.75;38.94;98634.06;5055014;28;20499;-73
2021/05/10 06:41:59;;;;;;;14.20;2.65;;;;;;;22.79;38.83;98631.91;5055601;28;20055;-76
2021/05/10 06:44:24;;;;;;;6.80;1.77;;;;;;;23.00;38.15;98633.25;5055565;28;20123;-74
2021/05/10 06:46:50;;;;;;;14.55;2.72;;;;;;;22.99;38.15;98631.72;5055437;28;20073;-75
2021/05/10 06:49:15;;;;;;;14.13;3.65;;;;;;;23.31;37.31;98632.66;5055816;28;20029;-80
2021/05/10 06:51:41;;;;;;;7.90;1.42;;;;;;;23.30;37.05;98639.44;5055793;28;20062;-76
2021/05/10 06:54:07;;;;;;;17.95;3.38;;;;;;;23.11;37.13;98633.69;5055574;28;20065;-78
2021/05/10 06:56:32;;;;;;;11.48;2.95;;;;;;;23.23;36.79;98626.53;5054840;28;20035;-79
2021/05/10 06:58:58;;;;;;;7.32;1.92;;;;;;;23.17;36.72;98628.31;5055814;28;20024;-79
2021/05/10 07:01:24;;;;;;;13.95;2.40;;;;;;;23.41;36.46;98637.84;5055597;28;20017;-80
2021/05/10 07:03:49;;;;;;;12.30;3.50;;;;;;;23.37;36.42;98625.28;5055356;28;20502;-76
2021/05/10 07:06:15;;;;;;;9.68;1.90;;;;;;;23.45;36.18;98644.09;5055388;28;20074;-80
2021/05/10 07:08:40;;;;;;;10.48;2.30;;;;;;;23.58;36.12;98629.31;5055377;28;20021;-78
2021/05/10 07:11:06;;;;;;;14.10;3.33;;;;;;;23.50;36.34;98631.56;5053953;28;20025;-75
2021/05/10 07:13:32;;;;;;;9.15;2.35;;;;;;;23.56;36.15;98634.56;5055383;28;20037;-79
2021/05/10 07:15:57;;;;;;;10.32;2.95;;;;;;;23.57;35.83;98641.69;5054905;28;20056;-84
2021/05/10 07:18:23;;;;;;;26.50;4.22;;;;;;;23.79;35.73;98636.94;5053935;28;20522;-75
2021/05/10 07:20:49;;;;;;;8.18;1.80;;;;;;;24.14;35.07;98636.88;5053593;28;20027;-76
2021/05/10 07:23:17;;;;;;;19.08;4.30;;;;;;;23.71;34.83;98630.06;5054009;28;21593;-76
2021/05/10 07:25:45;;;;;;;11.18;2.20;;;;;;;24.29;34.01;98643.50;5062965;28;20025;-77
2021/05/10 07:28:12;;;;;;;7.50;2.17;;;;;;;24.22;34.04;98638.94;5058375;28;20032;-82
2021/05/10 07:30:39;;;;;;;12.48;2.63;;;;;;;24.21;34.13;98631.81;5072998;28;20025;-80
2021/05/10 07:33:05;;;;;;;8.25;2.22;;;;;;;24.36;33.62;98648.81;5072854;28;20086;-81
2021/05/10 07:35:31;;;;;;;16.17;2.92;;;;;;;24.34;34.07;98637.34;5072957;28;20028;-82
2021/05/10 07:37:56;;;;;;;14.57;2.60;;;;;;;24.37;33.80;98638.44;5072851;28;20074;-76
2021/05/10 07:40:24;;;;;;;12.48;2.72;;;;;;;24.46;34.12;98635.69;5072996;28;20033;-82
2021/05/10 07:42:52;;;;;;;10.65;3.40;;;;;;;24.37;33.94;98630.06;5072732;28;20128;-82
2021/05/10 07:45:19;;;;;;;8.02;2.28;;;;;;;24.35;33.56;98636.88;5072793;28;20024;-79
2021/05/10 07:47:48;;;;;;;23.08;4.47;;;;;;;24.35;34.02;98636.88;5072076;28;20158;-83
2021/05/10 07:50:15;;;;;;;12.55;2.67;;;;;;;24.56;33.43;98637.28;5071987;28;20028;-81
2021/05/10 07:52:40;;;;;;;13.50;3.60;;;;;;;24.58;33.32;98641.19;5070720;28;20020;-83
2021/05/10 07:55:06;;;;;;;6.53;1.67;;;;;;;24.46;33.46;98639.25;5072297;28;20016;-83
2021/05/10 07:57:32;;;;;;;8.05;1.70;;;;;;;24.54;33.09;98634.19;5071397;28;20079;-75
2021/05/10 07:59:58;;;;;;;12.27;2.65;;;;;;;24.75;33.07;98640.94;5071325;28;20055;-75
2021/05/10 08:02:23;;;;;;;12.82;2.72;;;;;;;24.73;32.96;98644.19;5071223;28;20020;-81
2021/05/10 08:04:51;;;;;;;10.45;2.40;;;;;;;24.65;33.04;98642.94;5071396;28;20131;-82
2021/05/10 08:07:16;;;;;;;5.88;1.30;;;;;;;24.61;32.97;98651.44;5069990;28;20638;-75
2021/05/10 08:09:42;;;;;;;8.13;1.75;;;;;;;24.27;33.42;98649.53;5070252;28;20120;-74
2021/05/10 08:12:08;;;;;;;7.80;3.03;;;;;;;24.23;33.59;98648.88;5071240;28;20024;-75
2021/05/10 08:14:35;;;;;;;4.53;1.48;;;;;;;24.46;33.00;98649.66;5072157;28;20055;-75
2021/05/10 08:17:01;;;;;;;4.82;1.27;;;;;;;24.40;33.13;98641.09;5058332;28;21495;-75
2021/05/10 08:19:27;;;;;;;22.23;2.22;;;;;;;24.22;33.03;98641.75;5057609;28;20082;-75
2021/05/10 08:21:55;;;;;;;13.93;2.45;;;;;;;24.27;32.97;98645.97;5055928;28;20123;-76
2021/05/10 08:24:20;;;;;;;24.20;4.28;;;;;;;24.33;33.27;98636.56;5055497;28;20609;-76
2021/05/10 08:26:46;;;;;;;8.00;2.10;;;;;;;24.35;33.49;98631.31;5056463;28;20104;-75
2021/05/10 08:29:11;;;;;;;6.18;1.95;;;;;;;24.60;33.13;98640.72;5056440;28;20032;-75
2021/05/10 08:31:37;;;;;;;24.02;4.22;;;;;;;24.53;33.19;98646.59;5057806;28;20056;-76
2021/05/10 08:34:03;;;;;;;29.80;5.38;;;;;;;24.69;32.93;98645.56;5059908;28;20028;-78
2021/05/10 08:36:28;;;;;;;11.10;2.22;;;;;;;25.01;33.17;98638.69;5059938;28;20021;-80
2021/05/10 08:38:55;;;;;;;11.32;2.10;;;;;;;25.24;32.49;98648.53;5066743;28;20054;-76
2021/05/10 08:41:21;;;;;;;11.30;1.90;;;;;;;25.49;32.27;98634.31;5075581;28;20052;-78
2021/05/10 08:43:46;;;;;;;9.23;2.38;;;;;;;25.67;32.66;98630.72;5075687;28;20089;-83
2021/05/10 08:46:12;;;;;;;8.73;2.20;;;;;;;25.85;32.05;98633.56;5075590;28;20103;-76
2021/05/10 08:48:37;;;;;;;9.60;2.13;;;;;;;26.02;31.87;98641.63;5075717;28;20029;-76
2021/05/10 08:51:04;;;;;;;5.60;1.80;;;;;;;26.13;31.59;98642.69;5075608;28;20028;-75
2021/05/10 08:53:33;;;;;;;11.15;1.33;;;;;;;26.28;31.11;98643.56;5075588;28;20042;-82
2021/05/10 08:55:58;;;;;;;6.67;1.50;;;;;;;26.11;31.23;98641.59;5074321;28;20063;-83
2021/05/10 08:58:24;;;;;;;6.80;1.90;;;;;;;25.84;31.64;98645.97;5075006;28;20052;-79
2021/05/10 09:00:52;;;;;;;4.28;1.58;;;;;;;25.84;31.34;98631.97;5073955;28;20033;-82
2021/05/10 09:03:18;;;;;;;12.88;1.95;;;;;;;25.84;31.33;98640.38;5075189;28;20147;-78
2021/05/10 09:05:49;;;;;;;2.70;0.88;;;;;;;26.13;31.17;98636.31;5074798;28;20099;-76
2021/05/10 09:08:15;;;;;;;6.10;1.70;;;;;;;26.45;30.96;98637.66;5074413;28;20020;-76
2021/05/10 09:10:42;;;;;;;6.32;1.30;;;;;;;25.93;30.81;98631.22;5072841;28;20505;-75
2021/05/10 09:13:08;;;;;;;5.47;1.83;;;;;;;26.02;30.59;98642.41;5074337;28;20032;-75
2021/05/10 09:15:35;;;;;;;5.53;1.42;;;;;;;25.82;30.25;98628.88;5071124;28;20438;-75
2021/05/10 09:18:04;;;;;;;8.80;2.50;;;;;;;25.80;29.97;98642.56;5074149;28;20078;-79
2021/05/10 09:20:35;;;;;;;8.13;2.15;;;;;;;25.77;29.46;98646.31;5074081;28;20024;-80
2021/05/10 09:23:04;;;;;;;4.22;1.55;;;;;;;25.73;29.60;98642.88;5075083;28;20036;-76
2021/05/10 09:25:38;;;;;;;4.78;0.80;;;;;;;26.28;29.08;98640.78;5073644;28;20497;-75
2021/05/10 09:28:10;;;;;;;4.53;1.13;;;;;;;26.39;29.15;98650.75;5075021;28;20021;-83
2021/05/10 09:30:36;;;;;;;4.15;0.85;;;;;;;26.12;29.17;98652.31;5075089;28;20074;-82
2021/05/10 09:33:02;;;;;;;3.03;0.98;;;;;;;25.86;29.39;98653.91;5074138;28;20105;-76
2021/05/10 09:35:29;;;;;;;4.63;1.05;;;;;;;25.87;29.54;98655.47;5073718;28;20024;-75
2021/05/10 09:38:06;;;;;;;7.75;1.70;;;;;;;25.85;29.70;98652.38;5073757;28;20016;-80
2021/05/10 09:40:46;;;;;;;7.93;1.10;;;;;;;25.92;29.78;98655.63;5071036;28;20024;-75
2021/05/10 09:43:21;;;;;;;3.13;1.02;;;;;;;26.41;29.54;98645.44;5071105;28;20040;-76
2021/05/10 09:46:12;;;;;;;3.60;0.85;;;;;;;26.55;29.93;98644.78;5071407;28;20033;-76
2021/05/10 09:48:42;;;;;;;10.38;2.22;;;;;;;26.96;29.66;98653.63;5072018;28;20111;-75
2021/05/10 09:51:13;;;;;;;1.90;0.60;;;;;;;27.04;29.34;98644.41;5071509;28;20020;-75
2021/05/10 09:53:59;;;;;;;4.57;1.20;;;;;;;27.10;28.98;98642.53;5073554;28;20020;-76
2021/05/10 09:58:58;;;;;;;5.40;1.00;;;;;;;27.54;28.46;98633.50;5073419;28;20020;-75
2021/05/10 10:01:25;;;;;;;3.40;0.88;;;;;;;27.80;28.47;98628.16;5073419;28;20024;-76
2021/05/10 10:03:59;;;;;;;7.22;1.60;;;;;;;27.24;28.31;98635.44;5097506;28;20029;-81
2021/05/10 10:06:25;;;;;;;3.40;0.95;;;;;;;27.00;29.08;98629.78;5073304;28;20047;-81
2021/05/10 10:08:51;;;;;;;7.25;1.40;;;;;;;26.92;28.83;98634.19;5073284;28;20025;-78
2021/05/10 10:11:22;;;;;;;3.45;1.02;;;;;;;27.20;28.42;98634.81;5073224;28;20048;-77
2021/05/10 10:13:50;;;;;;;4.40;1.25;;;;;;;27.32;28.20;98639.44;5070906;28;20498;-76
2021/05/10 10:16:21;;;;;;;9.05;2.63;;;;;;;27.40;28.10;98645.44;5073004;28;20020;-75
2021/05/10 10:18:48;;;;;;;4.03;1.35;;;;;;;27.71;27.85;98641.50;5073003;28;20106;-75
2021/05/10 10:21:16;;;;;;;6.22;1.10;;;;;;;27.55;27.96;98643.47;5073249;28;20074;-78
2021/05/10 10:23:47;;;;;;;8.35;1.45;;;;;;;27.40;28.38;98648.25;5073555;28;20042;-75
2021/05/10 10:26:16;;;;;;;5.80;0.70;;;;;;;27.32;28.65;98650.66;5072618;28;20025;-75
2021/05/10 10:28:47;;;;;;;3.55;1.20;;;;;;;27.56;29.70;98650.63;5072351;28;20021;-75
2021/05/10 10:31:17;;;;;;;4.72;1.25;;;;;;;27.50;30.00;98646.94;5073845;28;20040;-78
2021/05/10 10:33:46;;;;;;;5.13;1.17;;;;;;;27.40;30.55;98653.88;5072160;28;20016;-79
2021/05/10 10:36:22;;;;;;;4.60;1.48;;;;;;;27.55;30.19;98651.88;5067104;28;20495;-79
2021/05/10 10:39:13;;;;;;;6.93;1.30;;;;;;;27.44;30.25;98654.47;5072772;28;20407;-76
2021/05/10 10:42:08;;;;;;;9.98;2.50;;;;;;;27.52;29.92;98646.47;5069687;28;20045;-75
2021/05/10 10:44:41;;;;;;;4.65;1.30;;;;;;;27.45;29.81;98649.63;5067790;28;20075;-75
2021/05/10 10:47:11;;;;;;;7.05;1.50;;;;;;;27.48;29.52;98652.25;5072471;28;20040;-76
2021/05/10 10:49:39;;;;;;;21.08;4.82;;;;;;;27.00;30.26;98652.22;5072569;28;20441;-82
2021/05/10 10:52:16;;;;;;;16.20;3.85;;;;;;;26.72;30.88;98648.75;5072497;28;20498;-78
2021/05/10 10:54:41;;;;;;;14.73;3.58;;;;;;;26.62;31.13;98660.47;5072371;28;20016;-75
2021/05/10 10:57:07;;;;;;;10.50;2.80;;;;;;;26.20;32.46;98659.16;5072033;28;20494;-75
2021/05/10 10:59:42;;;;;;;13.70;3.92;;;;;;;26.38;33.67;98661.16;5072392;28;20074;-76
2021/05/10 11:02:18;;;;;;;12.38;3.33;;;;;;;26.54;34.03;98660.81;5072271;28;20425;-82
2021/05/10 11:04:47;;;;;;;15.70;2.95;;;;;;;26.51;33.66;98660.97;5071903;28;20082;-80
2021/05/10 11:07:13;;;;;;;10.68;3.80;;;;;;;26.47;33.49;98666.75;5072182;28;20052;-81
2021/05/10 11:09:52;;;;;;;13.57;2.80;;;;;;;26.59;33.63;98664.97;5072148;28;20099;-78
2021/05/10 11:12:49;;;;;;;23.47;4.67;;;;;;;27.06;33.09;98661.56;5070581;28;20040;-76
2021/05/10 11:15:35;;;;;;;18.50;3.90;;;;;;;27.31;32.76;98677.13;5070578;28;20253;-75
2021/05/10 11:18:07;;;;;;;29.65;4.88;;;;;;;27.42;32.32;98665.38;5068628;28;20040;-75
2021/05/10 11:20:51;;;;;;;17.50;3.38;;;;;;;27.22;31.79;98668.00;5070594;28;20020;-75
2021/05/10 11:23:26;;;;;;;34.00;6.22;;;;;;;27.07;32.02;98679.16;5071214;28;20748;-75
2021/05/10 11:26:03;;;;;;;36.60;6.82;;;;;;;27.17;31.76;98680.66;5071804;28;20096;-75
2021/05/10 11:28:28;;;;;;;25.40;5.93;;;;;;;27.03;32.14;98673.66;5069700;28;20031;-76
2021/05/10 11:31:00;;;;;;;21.05;4.78;;;;;;;27.39;31.86;98671.94;5070494;28;20024;-75
2021/05/10 11:33:54;;;;;;;20.70;4.10;;;;;;;27.26;31.52;98689.00;5069691;28;20020;-75
2021/05/10 11:36:26;;;;;;;21.45;4.35;;;;;;;27.42;31.26;98679.41;5071545;28;20094;-79
2021/05/10 11:38:57;;;;;;;17.48;4.53;;;;;;;27.32;31.10;98677.91;5071751;28;20016;-77
2021/05/10 11:41:33;;;;;;;35.33;7.93;;;;;;;27.39;31.27;98683.16;5068751;28;20427;-74